createdAt,value
2017-09-25T00:00:20.198Z,94.23
2017-09-25T00:02:48.536Z,104.93
2017-09-25T00:05:16.837Z,106.57
2017-09-25T00:07:45.161Z,106.70
2017-09-25T00:10:14.232Z,116.67
2017-09-25T00:12:42.556Z,113.40
2017-09-25T00:15:10.862Z,123.83
2017-09-25T00:17:39.204Z,124.03
2017-09-25T00:20:08.277Z,119.53
2017-09-25T00:22:37.376Z,129.80
2017-09-25T00:25:06.509Z,123.90
2017-09-25T00:27:34.817Z,131.17
2017-09-25T00:30:03.142Z,121.43
2017-09-25T00:32:32.231Z,136.07
2017-09-25T00:35:00.585Z,131.43
2017-09-25T00:37:28.888Z,125.27
2017-09-25T00:39:57.957Z,133.07
2017-09-25T00:42:26.276Z,132.83
2017-09-25T00:44:54.585Z,138.23
2017-09-25T00:47:22.913Z,133.83
2017-09-25T00:49:51.999Z,136.20
2017-09-25T00:55:51.536Z,131.63
2017-09-25T00:58:20.622Z,121.07
2017-09-25T01:01:07.578Z,132.33
2017-09-25T01:03:53.705Z,123.57
2017-09-25T01:06:27.380Z,141.80
2017-09-25T01:08:55.704Z,114.00
2017-09-25T01:11:24.017Z,111.87
2017-09-25T01:13:52.325Z,123.13
2017-09-25T01:16:20.650Z,116.73
2017-09-25T01:18:49.735Z,107.53
2017-09-25T01:21:18.046Z,111.43
2017-09-25T01:23:46.369Z,120.23
2017-09-25T01:26:14.682Z,99.17
2017-09-25T01:28:43.773Z,107.63
2017-09-25T01:31:12.856Z,104.37
2017-09-25T01:33:41.175Z,101.10
2017-09-25T01:36:09.477Z,106.20
2017-09-25T01:38:37.800Z,106.87
2017-09-25T01:41:06.893Z,117.53
2017-09-25T01:43:35.979Z,121.77
2017-09-25T01:46:04.297Z,123.40
2017-09-25T01:48:32.620Z,126.77
2017-09-25T01:51:00.936Z,114.97
2017-09-25T01:53:29.334Z,114.17
2017-09-25T01:55:57.653Z,126.13
2017-09-25T01:58:25.977Z,121.83
2017-09-25T02:00:54.293Z,109.67
2017-09-25T02:03:22.625Z,107.43
2017-09-25T02:05:50.928Z,105.60
2017-09-25T02:08:19.237Z,100.77
2017-09-25T02:10:47.553Z,107.13
2017-09-25T02:13:16.628Z,99.27
2017-09-25T02:15:44.948Z,108.27
2017-09-25T02:18:13.260Z,98.00
2017-09-25T02:20:41.580Z,112.13
2017-09-25T02:23:10.660Z,112.10
2017-09-25T02:25:39.740Z,120.33
2017-09-25T02:28:08.093Z,117.83
2017-09-25T02:30:36.409Z,103.77
2017-09-25T02:33:05.500Z,108.50
2017-09-25T02:35:33.832Z,106.97
2017-09-25T02:38:02.143Z,106.53
2017-09-25T02:40:30.497Z,107.03
2017-09-25T02:42:58.807Z,97.67
2017-09-25T02:45:27.134Z,102.30
2017-09-25T02:47:55.455Z,112.40
2017-09-25T02:50:23.771Z,107.67
2017-09-25T02:52:52.122Z,119.87
2017-09-25T02:55:21.204Z,121.10
2017-09-25T02:57:49.518Z,95.50
2017-09-25T03:00:17.842Z,109.70
2017-09-25T03:02:46.166Z,115.80
2017-09-25T03:05:15.283Z,101.47
2017-09-25T03:07:43.608Z,116.90
2017-09-25T03:10:11.922Z,103.73
2017-09-25T03:12:41.023Z,99.63
2017-09-25T03:15:09.333Z,113.50
2017-09-25T03:17:37.677Z,122.97
2017-09-25T03:20:06.004Z,134.10
2017-09-25T03:22:34.321Z,121.73
2017-09-25T03:25:03.414Z,109.07
2017-09-25T03:27:32.542Z,123.87
2017-09-25T03:30:00.921Z,124.13
2017-09-25T03:32:29.239Z,127.23
2017-09-25T03:34:57.562Z,124.03
2017-09-25T03:37:25.888Z,118.47
2017-09-25T03:39:54.197Z,121.20
2017-09-25T03:42:23.305Z,127.77
2017-09-25T03:44:51.621Z,119.17
2017-09-25T03:47:19.929Z,124.70
2017-09-25T03:49:48.258Z,131.37
2017-09-25T03:52:16.593Z,127.60
2017-09-25T03:54:44.957Z,108.40
2017-09-25T03:57:13.338Z,116.27
2017-09-25T03:59:41.653Z,124.30
2017-09-25T04:02:09.980Z,112.77
2017-09-25T04:04:38.295Z,117.60
2017-09-25T04:07:07.405Z,118.03
2017-09-25T04:09:35.723Z,119.73
2017-09-25T04:12:04.036Z,114.47
2017-09-25T04:14:33.130Z,113.10
2017-09-25T04:17:01.442Z,103.30
2017-09-25T04:19:29.798Z,101.70
2017-09-25T04:21:58.881Z,109.37
2017-09-25T04:24:27.986Z,104.00
2017-09-25T04:26:57.076Z,98.27
2017-09-25T04:29:26.166Z,103.97
2017-09-25T04:31:54.515Z,119.17
2017-09-25T04:34:22.829Z,112.40
2017-09-25T04:36:51.902Z,112.87
2017-09-25T04:39:20.222Z,108.67
2017-09-25T04:41:48.548Z,112.30
2017-09-25T04:44:16.913Z,106.40
2017-09-25T04:46:45.223Z,106.20
2017-09-25T04:49:13.543Z,90.17
2017-09-25T04:51:41.858Z,98.60
2017-09-25T04:54:10.170Z,107.37
2017-09-25T04:56:39.278Z,104.50
2017-09-25T04:59:07.593Z,100.27
2017-09-25T05:01:35.913Z,96.30
2017-09-25T05:04:05.049Z,82.50
2017-09-25T05:06:33.358Z,99.23
2017-09-25T05:09:01.706Z,82.83
2017-09-25T05:11:30.022Z,83.17
2017-09-25T05:13:58.330Z,88.37
2017-09-25T05:16:27.422Z,80.90
2017-09-25T05:18:56.549Z,92.13
2017-09-25T05:21:24.886Z,95.37
2017-09-25T05:23:53.216Z,91.67
2017-09-25T05:26:21.554Z,88.30
2017-09-25T05:28:50.665Z,83.40
2017-09-25T05:31:18.986Z,89.17
2017-09-25T05:33:47.326Z,82.57
2017-09-25T05:36:15.637Z,88.93
2017-09-25T05:38:43.942Z,93.27
2017-09-25T05:41:12.292Z,93.67
2017-09-25T05:43:40.638Z,85.73
2017-09-25T05:46:08.973Z,86.53
2017-09-25T05:48:37.281Z,91.50
2017-09-25T05:51:05.597Z,96.63
2017-09-25T05:53:34.682Z,89.40
2017-09-25T05:56:02.989Z,91.80
2017-09-25T05:58:31.349Z,86.40
2017-09-25T06:00:59.650Z,90.83
2017-09-25T06:03:27.954Z,86.87
2017-09-25T06:05:57.033Z,83.63
2017-09-25T06:08:25.342Z,85.57
2017-09-25T06:10:53.690Z,86.27
2017-09-25T06:13:22.004Z,92.87
2017-09-25T06:15:50.318Z,90.53
2017-09-25T06:18:18.633Z,93.03
2017-09-25T06:20:46.958Z,94.10
2017-09-25T06:23:15.309Z,89.17
2017-09-25T06:25:43.630Z,106.90
2017-09-25T06:28:11.943Z,89.60
2017-09-25T06:30:40.286Z,90.47
2017-09-25T06:33:08.599Z,94.37
2017-09-25T06:35:36.941Z,94.47
2017-09-25T06:38:05.252Z,86.87
2017-09-25T06:40:33.582Z,102.33
2017-09-25T06:43:01.907Z,105.47
2017-09-25T06:45:30.990Z,108.90
2017-09-25T06:47:59.346Z,112.13
2017-09-25T06:50:27.668Z,121.87
2017-09-25T06:52:55.985Z,131.43
2017-09-25T06:55:24.306Z,135.90
2017-09-25T06:57:53.397Z,123.63
2017-09-25T07:00:22.517Z,114.17
2017-09-25T07:02:50.829Z,104.53
2017-09-25T07:05:19.158Z,97.63
2017-09-25T07:07:48.253Z,105.80
2017-09-25T07:10:17.334Z,111.70
2017-09-25T07:12:45.754Z,115.77
2017-09-25T07:15:14.082Z,114.37
2017-09-25T07:17:42.395Z,103.10
2017-09-25T07:20:10.745Z,94.60
2017-09-25T07:22:39.055Z,111.50
2017-09-25T07:25:08.141Z,105.07
2017-09-25T07:27:37.228Z,98.00
2017-09-25T07:30:06.342Z,107.13
2017-09-25T07:32:34.662Z,92.03
2017-09-25T07:35:02.970Z,102.20
2017-09-25T07:37:32.062Z,88.60
2017-09-25T07:40:00.394Z,82.47
2017-09-25T07:42:28.714Z,91.03
2017-09-25T07:44:57.024Z,78.20
2017-09-25T07:47:25.366Z,84.07
2017-09-25T07:49:53.686Z,77.70
2017-09-25T07:52:22.006Z,80.50
2017-09-25T07:54:50.322Z,93.37
2017-09-25T07:57:19.402Z,88.57
2017-09-25T07:59:47.727Z,90.27
2017-09-25T08:02:16.033Z,81.07
2017-09-25T08:04:44.370Z,76.50
2017-09-25T08:07:12.678Z,71.87
2017-09-25T08:09:40.985Z,71.07
2017-09-25T08:12:09.302Z,69.87
2017-09-25T08:14:37.608Z,73.87
2017-09-25T08:17:05.922Z,71.27
2017-09-25T08:19:34.997Z,72.13
2017-09-25T08:22:03.347Z,70.77
2017-09-25T08:24:31.653Z,68.87
2017-09-25T08:26:59.960Z,64.53
2017-09-25T08:29:29.041Z,61.93
2017-09-25T08:31:58.125Z,62.93
2017-09-25T08:34:26.456Z,77.87
2017-09-25T08:36:54.814Z,67.50
2017-09-25T08:39:23.161Z,77.07
2017-09-25T08:41:51.474Z,68.63
2017-09-25T08:44:19.779Z,74.83
2017-09-25T08:46:48.098Z,75.20
2017-09-25T08:49:16.414Z,78.20
2017-09-25T08:51:44.733Z,63.90
2017-09-25T08:54:13.042Z,76.10
2017-09-25T08:56:42.168Z,73.53
2017-09-25T08:59:10.477Z,67.33
2017-09-25T09:01:38.798Z,62.63
2017-09-25T09:04:07.885Z,64.23
2017-09-25T09:06:36.958Z,57.50
2017-09-25T09:09:05.295Z,57.10
2017-09-25T09:11:33.612Z,51.70
2017-09-25T09:14:01.950Z,59.90
2017-09-25T09:16:30.271Z,58.80
2017-09-25T09:18:58.600Z,51.60
2017-09-25T09:21:26.944Z,48.67
2017-09-25T09:23:56.023Z,49.10
2017-09-25T09:26:24.377Z,56.13
2017-09-25T09:28:52.717Z,47.17
2017-09-25T09:31:21.028Z,47.57
2017-09-25T09:33:49.359Z,51.03
2017-09-25T09:36:18.442Z,53.30
2017-09-25T09:38:46.787Z,53.20
2017-09-25T09:41:15.116Z,50.37
2017-09-25T09:43:44.193Z,46.33
2017-09-25T09:46:12.518Z,50.73
2017-09-25T09:48:40.822Z,39.63
2017-09-25T09:51:09.162Z,40.60
2017-09-25T09:53:37.479Z,45.63
2017-09-25T09:56:05.781Z,35.73
2017-09-25T09:58:34.094Z,50.70
2017-09-25T10:01:02.402Z,38.27
2017-09-25T10:03:30.740Z,50.47
2017-09-25T10:05:59.051Z,41.67
2017-09-25T10:08:27.358Z,47.03
2017-09-25T10:10:55.686Z,39.80
2017-09-25T10:13:23.990Z,42.13
2017-09-25T10:15:52.310Z,43.63
2017-09-25T10:18:21.402Z,40.67
2017-09-25T10:20:50.511Z,33.90
2017-09-25T10:23:19.582Z,36.37
2017-09-25T10:25:47.894Z,40.37
2017-09-25T10:28:16.218Z,36.47
2017-09-25T10:30:44.538Z,36.03
2017-09-25T10:33:12.866Z,34.77
2017-09-25T10:35:41.197Z,33.63
2017-09-25T10:38:09.542Z,34.10
2017-09-25T10:40:37.858Z,37.73
2017-09-25T10:43:06.167Z,32.37
2017-09-25T10:45:34.519Z,30.80
2017-09-25T10:48:02.830Z,30.23
2017-09-25T10:50:31.157Z,37.43
2017-09-25T10:52:59.774Z,45.23
2017-09-25T10:55:28.086Z,35.93
2017-09-25T10:57:56.411Z,37.50
2017-09-25T11:00:24.722Z,38.13
2017-09-25T11:02:53.040Z,35.10
2017-09-25T11:05:22.114Z,37.43
2017-09-25T11:07:50.459Z,40.70
2017-09-25T11:10:18.758Z,53.33
2017-09-25T11:12:47.077Z,50.57
2017-09-25T11:15:16.165Z,45.33
2017-09-25T11:17:45.242Z,48.63
2017-09-25T11:20:13.562Z,48.00
2017-09-25T11:22:41.874Z,47.40
2017-09-25T11:25:10.219Z,45.47
2017-09-25T11:27:38.538Z,56.50
2017-09-25T11:30:06.855Z,48.13
2017-09-25T11:32:35.936Z,48.17
2017-09-25T11:35:05.009Z,50.20
2017-09-25T11:37:33.329Z,57.47
2017-09-25T11:40:01.637Z,57.63
2017-09-25T11:42:29.977Z,50.13
2017-09-25T11:44:59.057Z,57.70
2017-09-25T11:47:28.129Z,62.47
2017-09-25T11:49:56.461Z,63.87
2017-09-25T11:52:24.773Z,61.00
2017-09-25T11:54:53.101Z,59.70
2017-09-25T11:57:22.174Z,56.70
2017-09-25T11:59:50.518Z,63.13
2017-09-25T12:02:18.829Z,56.50
2017-09-25T12:04:47.141Z,60.07
2017-09-25T12:07:15.463Z,65.43
2017-09-25T12:09:43.777Z,53.80
2017-09-25T12:12:12.870Z,58.87
2017-09-25T12:14:41.951Z,56.67
2017-09-25T12:17:10.278Z,52.57
2017-09-25T12:19:38.591Z,52.90
2017-09-25T12:22:06.898Z,52.13
2017-09-25T12:24:35.990Z,50.40
2017-09-25T12:27:05.075Z,51.20
2017-09-25T12:29:33.398Z,55.90
2017-09-25T12:32:01.710Z,40.67
2017-09-25T12:34:30.062Z,37.63
2017-09-25T12:36:58.372Z,36.70
2017-09-25T12:39:26.677Z,34.33
2017-09-25T12:41:55.768Z,31.23
2017-09-25T12:44:24.849Z,33.80
2017-09-25T12:46:53.191Z,39.77
2017-09-25T12:49:21.514Z,35.27
2017-09-25T12:51:50.597Z,35.33
2017-09-25T12:54:18.925Z,28.70
2017-09-25T12:56:47.234Z,29.07
2017-09-25T12:59:15.589Z,27.63
2017-09-25T13:01:43.903Z,27.30
2017-09-25T13:04:12.230Z,29.57
2017-09-25T13:06:40.558Z,27.87
2017-09-25T13:09:08.890Z,25.53
2017-09-25T13:11:37.235Z,30.10
2017-09-25T13:14:06.311Z,32.07
2017-09-25T13:16:34.646Z,31.50
2017-09-25T13:19:02.953Z,34.67
2017-09-25T13:21:31.273Z,34.43
2017-09-25T13:23:59.597Z,32.40
2017-09-25T13:26:27.908Z,38.07
2017-09-25T13:28:57.003Z,36.40
2017-09-25T13:31:26.081Z,28.97
2017-09-25T13:33:54.422Z,38.23
2017-09-25T13:36:22.729Z,35.73
2017-09-25T13:38:51.038Z,29.00
2017-09-25T13:41:20.126Z,32.63
2017-09-25T13:43:49.202Z,29.03
2017-09-25T13:46:17.518Z,30.03
2017-09-25T13:48:46.596Z,29.50
2017-09-25T13:51:15.724Z,31.70
2017-09-25T13:53:44.110Z,33.90
2017-09-25T13:56:12.422Z,32.07
2017-09-25T14:03:47.862Z,34.53
2017-09-25T14:06:16.227Z,30.33
2017-09-25T14:08:44.607Z,33.77
2017-09-25T14:11:13.010Z,23.70
2017-09-25T14:13:41.414Z,25.50
2017-09-25T14:16:09.786Z,30.80
2017-09-25T14:18:38.149Z,31.80
2017-09-25T14:21:06.533Z,31.00
2017-09-25T14:23:34.902Z,32.53
2017-09-25T14:26:03.278Z,38.00
2017-09-25T14:28:31.649Z,34.73
2017-09-25T14:31:00.045Z,38.43
2017-09-25T14:33:28.414Z,34.33
2017-09-25T14:35:56.791Z,39.60
2017-09-25T14:38:25.182Z,34.53
2017-09-25T14:40:53.551Z,37.90
2017-09-25T14:43:21.944Z,35.43
2017-09-25T14:45:50.308Z,34.30
2017-09-25T14:48:18.732Z,34.83
2017-09-25T14:50:47.096Z,30.50
2017-09-25T14:53:15.458Z,31.17
2017-09-25T14:55:43.835Z,30.13
2017-09-25T14:58:12.234Z,32.37
2017-09-25T15:00:40.605Z,32.13
2017-09-25T15:03:08.966Z,30.30
2017-09-25T15:05:37.361Z,32.20
2017-09-25T15:08:05.723Z,26.30
2017-09-25T15:10:34.096Z,28.07
2017-09-25T15:13:02.469Z,27.97
2017-09-25T15:15:30.829Z,25.50
2017-09-25T15:17:59.201Z,23.20
2017-09-25T15:20:28.334Z,22.63
2017-09-25T15:22:56.725Z,22.63
2017-09-25T15:25:25.861Z,19.37
2017-09-25T15:27:54.989Z,22.00
2017-09-25T15:30:23.417Z,20.90
2017-09-25T15:32:51.826Z,24.47
2017-09-25T15:35:21.018Z,24.53
2017-09-25T15:37:50.157Z,25.43
2017-09-25T15:40:18.559Z,24.10
2017-09-25T15:42:46.919Z,25.23
2017-09-25T15:45:15.284Z,22.67
2017-09-25T15:47:43.664Z,26.17
2017-09-25T15:50:12.029Z,23.57
2017-09-25T15:52:40.397Z,25.70
2017-09-25T15:55:09.523Z,21.60
2017-09-25T15:57:37.927Z,21.47
2017-09-25T16:00:06.318Z,20.63
2017-09-25T16:02:34.678Z,25.20
2017-09-25T16:05:03.082Z,26.07
2017-09-25T16:07:31.449Z,29.40
2017-09-25T16:09:59.827Z,29.97
2017-09-25T16:12:28.196Z,25.33
2017-09-25T16:14:56.593Z,25.97
2017-09-25T16:17:24.956Z,24.73
2017-09-25T16:19:53.321Z,24.53
2017-09-25T16:22:21.692Z,24.43
2017-09-25T16:24:50.057Z,20.73
2017-09-25T16:27:18.434Z,19.93
2017-09-25T16:29:46.801Z,19.50
2017-09-25T16:32:15.203Z,22.53
2017-09-25T16:34:43.574Z,24.03
2017-09-25T16:37:11.938Z,20.67
2017-09-25T16:39:40.317Z,24.83
2017-09-25T16:42:08.685Z,24.07
2017-09-25T16:44:37.825Z,22.40
2017-09-25T16:47:06.185Z,22.83
2017-09-25T16:49:34.586Z,25.83
2017-09-25T16:52:02.952Z,21.60
2017-09-25T16:54:31.321Z,20.50
2017-09-25T16:56:59.690Z,21.90
2017-09-25T16:59:28.062Z,18.57
2017-09-25T17:01:56.455Z,16.93
2017-09-25T17:04:24.821Z,19.77
2017-09-25T17:06:53.205Z,16.57
2017-09-25T17:09:22.334Z,20.10
2017-09-25T17:11:50.702Z,18.20
2017-09-25T17:14:19.086Z,18.00
2017-09-25T17:16:47.442Z,16.70
2017-09-25T17:19:15.825Z,16.33
2017-09-25T17:21:44.190Z,17.10
2017-09-25T17:24:12.586Z,16.70
2017-09-25T17:26:41.790Z,16.97
2017-09-25T17:29:10.168Z,15.67
2017-09-25T17:31:38.551Z,17.20
2017-09-25T17:34:06.910Z,19.80
2017-09-25T17:36:35.281Z,15.60
2017-09-25T17:39:03.649Z,20.37
2017-09-25T17:41:32.818Z,19.47
2017-09-25T17:44:01.185Z,17.43
2017-09-25T17:46:29.550Z,21.47
2017-09-25T17:48:57.926Z,20.33
2017-09-25T17:51:27.062Z,18.60
2017-09-25T17:53:55.458Z,22.20
2017-09-25T17:56:24.595Z,20.27
2017-09-25T17:58:52.994Z,22.00
2017-09-25T18:01:21.357Z,21.70
2017-09-25T18:03:49.736Z,21.10
2017-09-25T18:06:18.119Z,21.23
2017-09-25T18:08:46.486Z,21.33
2017-09-25T18:11:14.863Z,20.97
2017-09-25T18:13:43.223Z,18.27
2017-09-25T18:16:11.621Z,20.40
2017-09-25T18:18:40.002Z,20.47
2017-09-25T18:21:08.361Z,20.93
2017-09-25T18:23:36.729Z,19.77
2017-09-25T18:26:05.097Z,20.33
2017-09-25T18:28:33.493Z,18.53
2017-09-25T18:31:01.861Z,19.20
2017-09-25T18:33:30.286Z,17.90
2017-09-25T18:35:58.651Z,20.60
2017-09-25T18:38:27.017Z,20.50
2017-09-25T18:40:55.389Z,22.27
2017-09-25T18:43:23.749Z,19.70
2017-09-25T18:45:52.921Z,20.93
2017-09-25T18:48:21.286Z,21.70
2017-09-25T18:50:49.689Z,19.33
2017-09-25T18:53:18.824Z,20.53
2017-09-25T18:55:47.197Z,20.80
2017-09-25T18:58:15.583Z,22.23
2017-09-25T19:00:43.954Z,20.40
2017-09-25T19:03:12.339Z,28.77
2017-09-25T19:05:40.696Z,25.33
2017-09-25T19:08:09.860Z,19.80
2017-09-25T19:10:38.227Z,22.17
2017-09-25T19:13:07.397Z,21.20
2017-09-25T19:15:35.801Z,22.50
2017-09-25T19:18:04.166Z,22.13
2017-09-25T19:20:32.563Z,22.97
2017-09-25T19:23:00.933Z,22.13
2017-09-25T19:25:29.326Z,24.07
2017-09-25T19:27:57.704Z,24.03
2017-09-25T19:30:26.569Z,22.37
2017-09-25T19:32:54.955Z,23.10
2017-09-25T19:35:23.331Z,23.20
2017-09-25T19:37:51.700Z,24.17
2017-09-25T19:40:20.082Z,23.57
2017-09-25T19:42:48.483Z,25.83
2017-09-25T19:45:16.840Z,25.23
2017-09-25T19:47:47.557Z,26.40
2017-09-25T19:50:22.253Z,24.83
2017-09-25T19:52:51.420Z,30.90
2017-09-25T19:55:20.758Z,24.83
2017-09-25T19:57:52.090Z,26.77
2017-09-25T20:00:20.485Z,26.67
2017-09-25T20:02:48.892Z,26.73
2017-09-25T20:05:17.289Z,26.00
2017-09-25T20:07:45.683Z,29.30
2017-09-25T20:10:14.054Z,27.30
2017-09-25T20:12:42.437Z,31.37
2017-09-25T20:15:12.077Z,31.33
2017-09-25T20:17:56.874Z,27.27
2017-09-25T20:20:25.247Z,28.43
2017-09-25T20:22:53.639Z,28.50
2017-09-25T20:25:22.014Z,30.50
2017-09-25T20:27:50.391Z,28.63
2017-09-25T20:30:18.772Z,31.53
2017-09-25T20:32:47.200Z,30.30
2017-09-25T20:35:15.583Z,28.27
2017-09-25T20:37:43.958Z,32.70
2017-09-25T20:40:12.335Z,28.70
2017-09-25T20:42:44.565Z,32.50
2017-09-25T20:45:12.952Z,28.10
2017-09-25T20:47:41.325Z,29.33
2017-09-25T20:50:09.695Z,27.13
2017-09-25T20:52:38.063Z,31.97
2017-09-25T20:55:06.467Z,31.63
2017-09-25T20:57:34.843Z,28.00
2017-09-25T21:00:03.222Z,32.00
2017-09-25T21:02:31.604Z,31.40
2017-09-25T21:04:59.986Z,29.67
2017-09-25T21:07:28.370Z,31.23
2017-09-25T21:09:56.739Z,31.37
2017-09-25T21:12:25.130Z,32.77
2017-09-25T21:14:53.494Z,30.10
2017-09-25T21:17:21.857Z,33.93
2017-09-25T21:19:50.240Z,32.70
2017-09-25T21:22:18.605Z,32.60
2017-09-25T21:24:46.984Z,32.73
2017-09-25T21:27:15.350Z,35.10
2017-09-25T21:29:44.499Z,32.77
2017-09-25T21:32:12.863Z,35.13
2017-09-25T21:34:41.253Z,35.63
2017-09-25T21:37:09.627Z,34.67
2017-09-25T21:39:37.994Z,36.40
2017-09-25T21:42:06.375Z,31.63
2017-09-25T21:44:34.741Z,39.37
2017-09-25T21:47:03.118Z,37.77
2017-09-25T21:49:31.489Z,32.87
2017-09-25T21:51:59.897Z,34.10
2017-09-25T21:54:28.273Z,34.63
2017-09-25T21:56:56.634Z,33.47
2017-09-25T21:59:25.029Z,40.30
2017-09-25T22:01:53.403Z,39.90
2017-09-25T22:04:21.777Z,35.00
2017-09-25T22:06:50.142Z,36.97
2017-09-25T22:09:18.547Z,36.13
2017-09-25T22:11:46.922Z,37.97
2017-09-25T22:14:15.289Z,37.20
2017-09-25T22:16:43.662Z,36.47
2017-09-25T22:19:12.045Z,38.43
2017-09-25T22:21:40.414Z,38.20
2017-09-25T22:24:08.779Z,38.23
2017-09-25T22:26:37.942Z,40.37
2017-09-25T22:29:06.309Z,39.90
2017-09-25T22:31:34.677Z,36.87
2017-09-25T22:34:03.060Z,39.70
2017-09-25T22:36:31.425Z,37.37
2017-09-25T22:38:59.795Z,43.27
2017-09-25T22:41:28.157Z,37.83
2017-09-25T22:44:06.461Z,37.60
2017-09-25T22:46:35.595Z,36.40
2017-09-25T22:49:03.969Z,34.57
2017-09-25T22:51:32.332Z,43.87
2017-09-25T22:54:00.698Z,35.10
2017-09-25T22:56:29.925Z,34.67
2017-09-25T22:58:58.289Z,35.07
2017-09-25T23:01:26.690Z,36.97
2017-09-25T23:03:58.723Z,49.20
2017-09-25T23:06:27.132Z,33.80
2017-09-25T23:08:55.493Z,36.40
2017-09-25T23:11:23.886Z,34.00
2017-09-25T23:13:52.257Z,36.43
2017-09-25T23:16:20.621Z,32.13
2017-09-25T23:18:49.005Z,32.60
2017-09-25T23:21:17.371Z,37.13
2017-09-25T23:23:45.778Z,33.00
2017-09-25T23:26:14.151Z,34.40
2017-09-25T23:28:42.517Z,33.77
2017-09-25T23:31:10.885Z,33.70
2017-09-25T23:33:39.285Z,30.57
2017-09-25T23:36:07.666Z,34.47
2017-09-25T23:38:36.035Z,34.13
2017-09-25T23:41:04.531Z,38.00
2017-09-25T23:43:32.897Z,37.97
2017-09-25T23:46:01.256Z,32.17
2017-09-25T23:48:30.393Z,36.10
2017-09-25T23:50:58.753Z,30.13
2017-09-25T23:53:27.123Z,37.23
2017-09-25T23:55:55.481Z,34.30
2017-09-25T23:58:24.641Z,39.03
